createdAt,value
2018-08-09T00:02:05.709Z,21.64
2018-08-09T00:04:35.574Z,21.51
2018-08-09T00:07:05.877Z,21.29
2018-08-09T00:09:35.834Z,20.80
2018-08-09T00:12:05.844Z,21.03
2018-08-09T00:14:35.862Z,21.78
2018-08-09T00:17:06.186Z,22.20
2018-08-09T00:19:35.981Z,22.31
2018-08-09T00:22:06.013Z,22.38
2018-08-09T00:24:35.998Z,22.49
2018-08-09T00:27:06.190Z,22.07
2018-08-09T00:29:36.087Z,21.70
2018-08-09T00:32:05.973Z,22.12
2018-08-09T00:34:35.962Z,21.96
2018-08-09T00:37:06.382Z,21.36
2018-08-09T00:39:36.515Z,21.31
2018-08-09T00:42:06.402Z,21.05
2018-08-09T00:44:36.291Z,21.05
2018-08-09T00:47:06.712Z,21.13
2018-08-09T00:49:36.718Z,21.41
2018-08-09T00:52:06.758Z,21.71
2018-08-09T00:54:36.895Z,21.91
2018-08-09T00:57:06.866Z,22.05
2018-08-09T00:59:36.889Z,22.20
2018-08-09T01:02:11.980Z,22.17
2018-08-09T01:04:42.197Z,21.88
2018-08-09T01:07:12.103Z,20.90
2018-08-09T01:09:42.528Z,21.09
2018-08-09T01:12:12.550Z,20.80
2018-08-09T01:14:42.845Z,21.02
2018-08-09T01:17:13.169Z,21.03
2018-08-09T01:19:43.202Z,21.26
2018-08-09T01:22:13.445Z,20.84
2018-08-09T01:24:43.484Z,20.83
2018-08-09T01:27:13.692Z,20.88
2018-08-09T01:29:43.617Z,21.37
2018-08-09T01:32:13.564Z,21.33
2018-08-09T01:34:43.518Z,21.63
2018-08-09T01:37:13.911Z,21.84
2018-08-09T01:39:43.780Z,21.90
2018-08-09T01:42:30.121Z,21.93
2018-08-09T01:45:00.116Z,21.70
2018-08-09T01:47:30.210Z,21.01
2018-08-09T01:50:00.395Z,21.10
2018-08-09T01:52:31.226Z,21.04
2018-08-09T01:55:01.444Z,21.37
2018-08-09T01:57:32.379Z,21.69
2018-08-09T02:00:02.718Z,21.50
2018-08-09T02:02:32.743Z,21.27
2018-08-09T02:05:02.778Z,20.77
2018-08-09T02:07:33.078Z,20.22
2018-08-09T02:10:03.112Z,20.18
2018-08-09T02:12:33.474Z,20.00
2018-08-09T02:15:03.342Z,20.00
2018-08-09T02:17:33.278Z,20.16
2018-08-09T02:20:03.252Z,19.94
2018-08-09T02:22:33.434Z,20.01
2018-08-09T02:25:03.375Z,20.53
2018-08-09T02:27:33.288Z,20.88
2018-08-09T02:30:03.115Z,20.87
2018-08-09T02:32:33.270Z,20.36
2018-08-09T02:35:03.538Z,20.30
2018-08-09T02:37:33.553Z,20.72
2018-08-09T02:40:03.466Z,20.84
2018-08-09T02:42:33.378Z,20.77
2018-08-09T02:45:03.423Z,20.95
2018-08-09T02:47:33.444Z,20.90
2018-08-09T02:50:03.306Z,20.73
2018-08-09T02:52:33.596Z,20.78
2018-08-09T02:55:03.811Z,20.30
2018-08-09T02:57:33.778Z,19.78
2018-08-09T03:00:03.683Z,19.86
2018-08-09T03:02:33.896Z,19.81
2018-08-09T03:05:03.800Z,19.78
2018-08-09T03:07:33.787Z,20.02
2018-08-09T03:10:03.803Z,19.73
2018-08-09T03:12:34.066Z,19.88
2018-08-09T03:15:03.959Z,19.75
2018-08-09T03:17:33.855Z,19.58
2018-08-09T03:20:03.954Z,19.28
2018-08-09T03:22:33.819Z,19.54
2018-08-09T03:25:03.782Z,20.24
2018-08-09T03:27:34.018Z,20.30
2018-08-09T03:30:04.063Z,19.79
2018-08-09T03:32:34.090Z,19.06
2018-08-09T03:35:04.062Z,18.68
2018-08-09T03:37:34.014Z,19.38
2018-08-09T03:40:03.974Z,20.02
2018-08-09T03:42:34.028Z,19.56
2018-08-09T03:45:04.001Z,19.16
2018-08-09T03:47:33.965Z,19.66
2018-08-09T03:50:04.673Z,19.99
2018-08-09T03:52:34.553Z,19.54
2018-08-09T03:55:05.176Z,19.65
2018-08-09T03:57:35.130Z,19.87
2018-08-09T04:00:07.197Z,20.27
2018-08-09T04:02:37.481Z,20.27
2018-08-09T04:05:08.354Z,19.45
2018-08-09T04:07:38.110Z,19.26
2018-08-09T04:10:08.735Z,19.46
2018-08-09T04:12:38.762Z,19.49
2018-08-09T04:15:10.489Z,19.36
2018-08-09T04:17:40.478Z,19.29
2018-08-09T04:20:10.539Z,19.30
2018-08-09T04:22:40.351Z,19.19
2018-08-09T04:25:11.117Z,19.06
2018-08-09T04:27:41.149Z,19.53
2018-08-09T04:30:11.091Z,19.94
2018-08-09T04:32:41.089Z,20.18
2018-08-09T04:35:11.291Z,20.20
2018-08-09T04:37:41.191Z,20.18
2018-08-09T04:40:11.389Z,19.85
2018-08-09T04:42:41.290Z,19.76
2018-08-09T04:45:11.978Z,19.91
2018-08-09T04:47:41.957Z,20.06
2018-08-09T04:50:12.867Z,19.78
2018-08-09T04:52:42.962Z,19.70
2018-08-09T04:55:13.284Z,19.51
2018-08-09T04:57:43.318Z,19.71
2018-08-09T05:00:13.203Z,19.89
2018-08-09T05:02:43.384Z,19.95
2018-08-09T05:05:13.395Z,19.89
2018-08-09T05:07:43.618Z,19.74
2018-08-09T05:10:13.594Z,19.48
2018-08-09T05:12:44.062Z,19.66
2018-08-09T05:15:14.754Z,19.60
2018-08-09T05:17:45.258Z,19.38
2018-08-09T05:20:15.875Z,19.49
2018-08-09T05:22:46.024Z,19.50
2018-08-09T05:25:16.106Z,19.65
2018-08-09T05:27:46.109Z,19.54
2018-08-09T05:30:18.148Z,19.84
2018-08-09T05:32:48.188Z,20.13
2018-08-09T05:35:26.633Z,20.38
2018-08-09T05:37:57.381Z,20.27
2018-08-09T05:40:27.458Z,20.32
2018-08-09T05:42:57.606Z,20.39
2018-08-09T05:45:27.550Z,20.11
2018-08-09T05:48:01.246Z,19.82
2018-08-09T05:50:31.283Z,19.83
2018-08-09T05:53:01.405Z,19.72
2018-08-09T05:55:33.384Z,19.96
2018-08-09T05:58:03.816Z,20.04
2018-08-09T06:00:33.695Z,19.78
2018-08-09T06:03:03.512Z,20.10
2018-08-09T06:05:33.915Z,20.43
2018-08-09T06:08:03.997Z,20.55
2018-08-09T06:10:33.986Z,20.56
2018-08-09T06:13:04.130Z,20.64
2018-08-09T06:15:34.202Z,20.55
2018-08-09T06:18:04.433Z,20.56
2018-08-09T06:20:34.490Z,20.54
2018-08-09T06:23:04.385Z,20.57
2018-08-09T06:25:34.517Z,20.61
2018-08-09T06:28:04.793Z,20.40
2018-08-09T06:30:37.194Z,20.50
2018-08-09T06:35:37.358Z,20.47
2018-08-09T06:38:07.685Z,20.50
2018-08-09T06:40:39.635Z,20.61
2018-08-09T06:43:09.774Z,20.74
2018-08-09T06:46:02.747Z,20.71
2018-08-09T06:48:32.860Z,20.77
2018-08-09T06:51:03.775Z,20.78
2018-08-09T06:53:34.019Z,20.80
2018-08-09T06:56:04.104Z,20.75
2018-08-09T06:58:34.326Z,20.84
2018-08-09T07:01:04.480Z,20.73
2018-08-09T07:03:34.732Z,20.78
2018-08-09T07:06:04.608Z,20.85
2018-08-09T07:11:36.185Z,20.93
2018-08-09T07:28:08.491Z,21.10
2018-08-09T07:30:38.522Z,21.17
2018-08-09T07:33:08.550Z,21.19
2018-08-09T07:36:01.668Z,21.25
2018-08-09T07:38:31.546Z,21.24
2018-08-09T07:41:01.651Z,21.27
2018-08-09T07:43:31.679Z,21.39
2018-08-09T07:46:01.534Z,21.55
2018-08-09T07:49:02.916Z,21.61
2018-08-09T07:54:40.622Z,21.55
2018-08-09T07:57:10.673Z,21.68
2018-08-09T07:59:40.644Z,21.70
2018-08-09T08:02:10.480Z,21.76
2018-08-09T08:04:40.403Z,21.99
2018-08-09T08:07:15.595Z,22.06
2018-08-09T08:09:46.420Z,22.22
2018-08-09T08:12:18.316Z,22.34
2018-08-09T08:14:48.331Z,22.39
2018-08-09T08:17:18.400Z,22.30
2018-08-09T08:19:48.274Z,22.31
2018-08-09T08:22:18.099Z,22.46
2018-08-09T08:24:48.954Z,22.75
2018-08-09T08:27:18.848Z,22.58
2018-08-09T08:29:48.579Z,22.39
2018-08-09T08:32:18.542Z,22.58
2018-08-09T08:34:48.244Z,22.50
2018-08-09T08:37:18.185Z,22.50
2018-08-09T08:39:48.130Z,22.60
2018-08-09T08:42:18.059Z,22.50
2018-08-09T08:44:47.851Z,22.33
2018-08-09T08:47:18.292Z,22.55
2018-08-09T08:49:48.130Z,22.78
2018-08-09T08:52:17.991Z,22.56
2018-08-09T08:54:47.912Z,22.77
2018-08-09T08:57:17.698Z,22.91
2018-08-09T08:59:47.573Z,23.07
2018-08-09T09:02:18.106Z,23.03
2018-08-09T09:04:48.905Z,22.79
2018-08-09T09:07:19.242Z,23.23
2018-08-09T09:09:49.021Z,23.27
2018-08-09T09:12:18.874Z,23.39
2018-08-09T09:14:48.818Z,23.35
2018-08-09T09:17:18.571Z,23.48
2018-08-09T09:19:49.480Z,23.12
2018-08-09T09:22:19.686Z,23.10
2018-08-09T09:24:49.497Z,23.27
2018-08-09T09:27:19.331Z,23.38
2018-08-09T09:29:49.172Z,23.34
2018-08-09T09:32:19.190Z,23.31
2018-08-09T09:34:49.087Z,23.42
2018-08-09T09:37:19.555Z,23.71
2018-08-09T09:39:49.478Z,23.84
2018-08-09T10:06:26.929Z,25.05
2018-08-09T10:08:56.718Z,25.39
2018-08-09T10:11:27.847Z,25.23
2018-08-09T10:13:57.704Z,25.42
2018-08-09T10:16:30.172Z,25.81
2018-08-09T10:18:59.930Z,25.74
2018-08-09T10:21:30.671Z,25.90
2018-08-09T10:24:01.031Z,25.98
2018-08-09T10:26:30.854Z,26.11
2018-08-09T10:29:00.612Z,26.13
2018-08-09T10:31:31.208Z,26.12
2018-08-09T10:34:01.655Z,26.36
2018-08-09T10:36:32.249Z,26.41
2018-08-09T10:39:03.187Z,26.55
2018-08-09T10:41:33.109Z,26.61
2018-08-09T10:44:02.863Z,26.46
2018-08-09T10:46:33.140Z,26.72
2018-08-09T10:49:02.995Z,26.46
2018-08-09T10:51:32.728Z,26.85
2018-08-09T10:54:03.355Z,26.92
2018-08-09T10:56:33.192Z,26.95
2018-08-09T10:59:04.662Z,26.77
2018-08-09T11:01:34.840Z,27.22
2018-08-09T11:04:04.686Z,27.14
2018-08-09T11:06:34.817Z,27.44
2018-08-09T11:09:07.293Z,27.42
2018-08-09T11:11:37.226Z,27.46
2018-08-09T11:14:07.942Z,27.67
2018-08-09T11:16:37.625Z,27.73
2018-08-09T11:19:07.623Z,27.47
2018-08-09T11:21:37.762Z,27.28
2018-08-09T11:24:08.247Z,27.41
2018-08-09T11:26:38.218Z,27.91
2018-08-09T11:29:08.083Z,28.13
2018-08-09T11:31:37.734Z,27.86
2018-08-09T11:34:11.007Z,27.95
2018-08-09T11:36:40.727Z,28.34
2018-08-09T11:39:12.500Z,28.43
2018-08-09T11:41:42.891Z,28.42
2018-08-09T11:44:12.963Z,28.27
2018-08-09T11:46:42.815Z,28.27
2018-08-09T11:49:12.682Z,28.44
2018-08-09T11:51:42.602Z,28.45
2018-08-09T11:54:12.593Z,28.55
2018-08-09T11:56:42.576Z,28.64
2018-08-09T11:59:12.272Z,28.66
2018-08-09T12:01:44.094Z,28.71
2018-08-09T12:07:20.217Z,28.62
2018-08-09T12:09:50.584Z,28.59
2018-08-09T12:12:20.939Z,28.66
2018-08-09T12:14:51.951Z,28.76
2018-08-09T12:17:23.551Z,28.69
2018-08-09T12:19:53.410Z,28.49
2018-08-09T12:22:23.154Z,28.29
2018-08-09T12:24:53.120Z,28.31
2018-08-09T12:27:23.056Z,28.22
2018-08-09T12:29:52.881Z,28.20
2018-08-09T12:35:21.833Z,28.22
2018-08-09T12:37:51.859Z,28.15
2018-08-09T12:40:31.614Z,28.15
2018-08-09T12:43:02.652Z,28.08
2018-08-09T12:45:32.557Z,28.12
2018-08-09T12:48:02.307Z,28.19
2018-08-09T12:50:32.308Z,28.22
2018-08-09T12:53:03.034Z,28.11
2018-08-09T12:55:33.055Z,28.20
2018-08-09T12:58:02.975Z,28.39
2018-08-09T13:00:35.582Z,28.76
2018-08-09T13:03:05.599Z,28.42
2018-08-09T13:05:41.067Z,28.54
2018-08-09T13:08:14.972Z,28.83
2018-08-09T13:10:48.529Z,28.89
2018-08-09T13:13:21.471Z,29.01
2018-08-09T13:15:51.566Z,28.78
2018-08-09T13:18:23.136Z,28.90
2018-08-09T13:20:54.171Z,29.16
2018-08-09T13:23:27.767Z,28.79
2018-08-09T13:26:01.019Z,29.03
2018-08-09T13:28:31.338Z,28.92
2018-08-09T13:31:02.417Z,28.40
2018-08-09T13:33:32.991Z,28.16
2018-08-09T13:36:03.240Z,27.24
2018-08-09T13:38:33.321Z,26.75
2018-08-09T13:41:03.644Z,26.82
2018-08-09T13:43:33.746Z,26.78
2018-08-09T13:46:03.859Z,26.40
2018-08-09T13:48:34.155Z,26.48
2018-08-09T13:51:04.788Z,26.14
2018-08-09T13:53:34.982Z,25.93
2018-08-09T13:56:17.300Z,26.15
2018-08-09T13:58:47.322Z,25.76
2018-08-09T14:01:17.990Z,25.29
2018-08-09T14:03:49.248Z,25.16
2018-08-09T14:06:19.388Z,24.73
2018-08-09T14:08:49.602Z,25.08
2018-08-09T14:11:20.411Z,25.01
2018-08-09T14:13:50.517Z,24.48
2018-08-09T14:16:20.594Z,24.51
2018-08-09T14:18:54.591Z,23.79
2018-08-09T14:21:35.231Z,24.10
2018-08-09T14:24:07.639Z,24.41
2018-08-09T14:26:37.507Z,24.38
2018-08-09T14:29:08.867Z,24.36
2018-08-09T14:31:39.355Z,24.31
2018-08-09T14:34:10.255Z,24.70
2018-08-09T14:36:40.180Z,24.55
2018-08-09T14:39:11.681Z,24.42
2018-08-09T14:41:41.788Z,23.98
2018-08-09T14:44:16.829Z,24.27
2018-08-09T14:46:46.791Z,24.47
2018-08-09T14:49:16.739Z,24.58
2018-08-09T14:51:46.714Z,24.66
2018-08-09T14:54:39.701Z,24.73
2018-08-09T14:57:10.757Z,24.50
2018-08-09T14:59:41.426Z,24.56
2018-08-09T15:02:12.629Z,24.58
2018-08-09T15:04:42.722Z,24.66
2018-08-09T15:07:12.553Z,24.89
2018-08-09T15:09:42.834Z,25.05
2018-08-09T15:12:12.686Z,24.78
2018-08-09T15:14:42.564Z,25.11
2018-08-09T15:17:12.603Z,25.12
2018-08-09T15:19:42.515Z,25.36
2018-08-09T15:22:13.249Z,25.41
2018-08-09T15:24:43.169Z,25.23
2018-08-09T15:27:15.533Z,25.18
2018-08-09T15:29:45.787Z,25.13
2018-08-09T15:32:22.383Z,25.03
2018-08-09T15:34:54.484Z,24.97
2018-08-09T15:37:24.566Z,25.13
2018-08-09T15:39:54.538Z,25.14
2018-08-09T15:42:24.423Z,24.94
2018-08-09T15:44:56.332Z,25.02
2018-08-09T15:47:26.858Z,25.05
2018-08-09T15:49:56.610Z,24.98
2018-08-09T15:52:26.772Z,24.88
2018-08-09T15:54:56.892Z,25.00
2018-08-09T15:57:26.770Z,24.91
2018-08-09T15:59:56.994Z,25.11
2018-08-09T16:02:26.970Z,24.79
2018-08-09T16:04:57.152Z,24.61
2018-08-09T16:07:27.069Z,24.93
2018-08-09T16:09:57.116Z,24.86
2018-08-09T16:12:26.995Z,24.92
2018-08-09T16:14:56.847Z,24.80
2018-08-09T16:17:28.761Z,24.95
2018-08-09T16:19:58.515Z,24.93
2018-08-09T16:22:28.617Z,24.86
2018-08-09T16:24:58.469Z,24.94
2018-08-09T16:27:28.415Z,24.68
2018-08-09T16:33:08.113Z,24.53
2018-08-09T16:35:37.910Z,24.68
2018-08-09T16:38:07.814Z,24.82
2018-08-09T16:40:37.651Z,24.66
2018-08-09T16:43:08.631Z,24.97
2018-08-09T16:45:38.413Z,24.92
2018-08-09T16:48:08.509Z,24.98
2018-08-09T16:50:50.699Z,24.84
2018-08-09T16:53:20.650Z,24.72
2018-08-09T16:55:50.437Z,24.78
2018-08-09T16:58:20.615Z,25.06
2018-08-09T17:00:51.087Z,25.06
2018-08-09T17:03:26.798Z,24.75
2018-08-09T17:05:56.608Z,25.19
2018-08-09T17:11:26.849Z,25.40
2018-08-09T17:13:56.789Z,25.45
2018-08-09T17:16:26.698Z,25.34
2018-08-09T17:18:56.509Z,25.55
2018-08-09T17:21:26.383Z,25.63
2018-08-09T17:24:02.298Z,25.60
2018-08-09T17:26:32.394Z,25.57
2018-08-09T17:29:02.684Z,25.59
2018-08-09T17:35:31.642Z,25.56
2018-08-09T17:38:26.561Z,25.48
2018-08-09T17:40:57.915Z,25.50
2018-08-09T17:43:28.419Z,25.48
2018-08-09T17:46:32.271Z,25.45
2018-08-09T17:49:14.315Z,25.19
2018-08-09T17:51:44.499Z,24.88
2018-08-09T17:54:15.428Z,25.29
2018-08-09T17:56:45.850Z,25.06
2018-08-09T17:59:16.512Z,25.17
2018-08-09T18:01:46.387Z,24.94
2018-08-09T18:04:16.395Z,25.05
2018-08-09T18:09:46.134Z,25.10
2018-08-09T18:12:16.170Z,25.02
2018-08-09T18:15:14.241Z,24.98
2018-08-09T18:17:45.187Z,24.91
2018-08-09T18:20:17.223Z,24.83
2018-08-09T18:22:47.161Z,24.77
2018-08-09T18:25:17.172Z,24.51
2018-08-09T18:27:46.989Z,24.87
2018-08-09T18:30:18.517Z,24.06
2018-08-09T18:32:48.541Z,23.78
2018-08-09T18:36:26.840Z,24.01
2018-08-09T18:38:56.691Z,23.91
2018-08-09T18:44:49.025Z,23.86
2018-08-09T18:47:18.980Z,23.16
2018-08-09T18:49:49.302Z,23.38
2018-08-09T18:52:19.276Z,23.39
2018-08-09T18:54:49.870Z,23.46
2018-08-09T18:57:20.360Z,22.96
2018-08-09T18:59:50.415Z,23.35
2018-08-09T19:02:20.989Z,22.72
2018-08-09T19:04:51.264Z,23.33
2018-08-09T19:07:21.773Z,23.06
2018-08-09T19:09:51.666Z,23.43
2018-08-09T19:12:21.701Z,23.31
2018-08-09T19:14:51.442Z,23.04
2018-08-09T19:31:45.617Z,22.88
2018-08-09T19:34:15.558Z,23.18
2018-08-09T19:36:45.502Z,22.52
2018-08-09T19:39:16.093Z,22.73
2018-08-09T19:41:46.046Z,22.80
2018-08-09T19:44:22.226Z,22.95
2018-08-09T19:46:52.126Z,22.91
2018-08-09T19:49:22.146Z,22.70
2018-08-09T19:51:51.990Z,22.48
2018-08-09T19:54:21.936Z,22.53
2018-08-09T19:56:52.166Z,22.79
2018-08-09T19:59:22.002Z,22.88
2018-08-09T20:01:51.930Z,22.70
2018-08-09T20:04:21.861Z,22.66
2018-08-09T20:06:51.769Z,22.73
2018-08-09T20:09:21.545Z,22.70
2018-08-09T20:11:51.327Z,22.13
2018-08-09T20:14:21.770Z,22.16
2018-08-09T20:16:51.778Z,22.44
2018-08-09T20:19:21.666Z,22.55
2018-08-09T20:21:51.429Z,22.48
2018-08-09T20:24:24.676Z,22.23
2018-08-09T20:26:54.679Z,22.31
2018-08-09T20:29:24.416Z,22.53
2018-08-09T20:31:54.206Z,21.86
2018-08-09T20:34:24.306Z,22.00
2018-08-09T20:36:54.076Z,21.71
2018-08-09T20:39:23.887Z,21.59
2018-08-09T20:41:53.516Z,22.26
2018-08-09T20:44:23.218Z,21.75
2018-08-09T20:46:55.051Z,22.21
2018-08-09T20:49:25.044Z,22.19
2018-08-09T20:51:54.829Z,22.01
2018-08-09T20:54:25.579Z,21.74
2018-08-09T20:56:55.378Z,21.76
2018-08-09T20:59:25.102Z,22.01
2018-08-09T21:01:54.900Z,22.27
2018-08-09T21:04:24.623Z,21.76
2018-08-09T21:06:54.314Z,22.19
2018-08-09T21:09:27.847Z,22.17
2018-08-09T21:11:58.024Z,21.69
2018-08-09T21:14:27.978Z,21.94
2018-08-09T21:16:57.621Z,21.35
2018-08-09T21:19:27.259Z,21.64
2018-08-09T21:21:58.213Z,21.84
2018-08-09T21:24:28.423Z,21.75
2018-08-09T21:26:58.294Z,21.45
2018-08-09T21:29:30.724Z,21.71
2018-08-09T21:32:00.602Z,21.63
2018-08-09T21:34:30.266Z,20.95
2018-08-09T21:37:01.173Z,21.70
2018-08-09T21:39:31.012Z,21.40
2018-08-09T21:42:01.274Z,20.90
2018-08-09T21:44:31.043Z,20.84
2018-08-09T21:47:00.758Z,21.38
2018-08-09T21:49:32.126Z,20.99
2018-08-09T21:52:01.846Z,20.99
2018-08-09T21:54:31.717Z,21.42
2018-08-09T21:57:03.716Z,21.36
2018-08-09T21:59:33.708Z,20.97
2018-08-09T22:02:04.897Z,21.10
2018-08-09T22:04:38.612Z,20.98
2018-08-09T22:07:13.700Z,21.10
2018-08-09T22:09:50.985Z,21.00
2018-08-09T22:12:25.941Z,20.80
2018-08-09T22:15:08.275Z,21.14
2018-08-09T22:17:43.165Z,20.89
2018-08-09T22:20:17.903Z,20.71
2018-08-09T22:22:48.039Z,20.61
2018-08-09T22:25:17.803Z,20.82
2018-08-09T22:27:47.508Z,19.74
2018-08-09T22:30:26.634Z,20.42
2018-08-09T22:32:56.481Z,20.74
2018-08-09T22:35:26.701Z,20.69
2018-08-09T22:37:56.442Z,20.57
2018-08-09T22:40:26.206Z,20.64
2018-08-09T22:43:10.512Z,20.37
2018-08-09T22:45:46.431Z,19.76
2018-08-09T22:48:16.225Z,20.37
2018-08-09T22:51:09.879Z,20.37
2018-08-09T23:07:31.447Z,19.73
2018-08-09T23:10:01.541Z,18.87
2018-08-09T23:13:19.060Z,19.49
2018-08-09T23:15:48.806Z,18.94
2018-08-09T23:21:17.727Z,19.09
2018-08-09T23:24:05.381Z,19.47
2018-08-09T23:26:35.116Z,19.71
2018-08-09T23:29:04.946Z,18.73
2018-08-09T23:31:34.877Z,19.62
2018-08-09T23:34:04.590Z,19.55
2018-08-09T23:36:34.263Z,19.58
2018-08-09T23:39:04.679Z,19.04
2018-08-09T23:41:34.330Z,19.53
2018-08-09T23:44:04.035Z,18.98
2018-08-09T23:47:01.186Z,19.06
2018-08-09T23:49:30.873Z,18.86
2018-08-09T23:52:03.717Z,19.33
2018-08-09T23:54:33.374Z,19.20
2018-08-09T23:57:03.427Z,18.60
